sensor_id;sensor_type;location;lat;lon;timestamp;P1;durP1;ratioP1;P2;durP2;ratioP2
7557;SDS011;3820;51.098;13.716;2023-04-25T00:01:47;8.03;;;5.17;;
7557;SDS011;3820;51.098;13.716;2023-04-25T00:04:14;7.13;;;4.77;;
7557;SDS011;3820;51.098;13.716;2023-04-25T00:06:41;6.83;;;4.53;;
7557;SDS011;3820;51.098;13.716;2023-04-25T00:09:07;8.27;;;5.33;;
7557;SDS011;3820;51.098;13.716;2023-04-25T00:11:36;7.87;;;5.47;;
7557;SDS011;3820;51.098;13.716;2023-04-25T00:14:03;7.27;;;5.10;;
7557;SDS011;3820;51.098;13.716;2023-04-25T00:16:31;6.47;;;5.10;;
7557;SDS011;3820;51.098;13.716;2023-04-25T00:19:00;5.80;;;4.73;;
7557;SDS011;3820;51.098;13.716;2023-04-25T00:21:29;7.07;;;5.00;;
7557;SDS011;3820;51.098;13.716;2023-04-25T00:23:57;6.50;;;5.07;;
7557;SDS011;3820;51.098;13.716;2023-04-25T00:26:24;5.90;;;5.30;;
7557;SDS011;3820;51.098;13.716;2023-04-25T00:28:51;6.50;;;4.90;;
7557;SDS011;3820;51.098;13.716;2023-04-25T00:31:18;6.17;;;4.60;;
7557;SDS011;3820;51.098;13.716;2023-04-25T00:33:44;5.47;;;4.67;;
7557;SDS011;3820;51.098;13.716;2023-04-25T00:36:11;8.87;;;5.03;;
7557;SDS011;3820;51.098;13.716;2023-04-25T00:38:37;6.60;;;5.10;;
7557;SDS011;3820;51.098;13.716;2023-04-25T00:41:05;6.10;;;4.93;;
7557;SDS011;3820;51.098;13.716;2023-04-25T00:43:33;6.07;;;4.83;;
7557;SDS011;3820;51.098;13.716;2023-04-25T00:46:00;7.17;;;5.17;;
7557;SDS011;3820;51.098;13.716;2023-04-25T00:48:27;7.10;;;5.10;;
7557;SDS011;3820;51.098;13.716;2023-04-25T00:50:54;8.23;;;5.33;;
7557;SDS011;3820;51.098;13.716;2023-04-25T00:53:23;8.13;;;5.70;;
7557;SDS011;3820;51.098;13.716;2023-04-25T00:55:51;6.47;;;5.53;;
7557;SDS011;3820;51.098;13.716;2023-04-25T00:58:19;8.97;;;6.30;;
7557;SDS011;3820;51.098;13.716;2023-04-25T01:00:48;8.47;;;5.90;;
7557;SDS011;3820;51.098;13.716;2023-04-25T01:03:16;8.67;;;5.67;;
7557;SDS011;3820;51.098;13.716;2023-04-25T01:05:47;7.37;;;5.80;;
7557;SDS011;3820;51.098;13.716;2023-04-25T01:08:14;9.40;;;6.53;;
7557;SDS011;3820;51.098;13.716;2023-04-25T01:10:41;8.57;;;6.43;;
7557;SDS011;3820;51.098;13.716;2023-04-25T01:13:08;7.47;;;6.27;;
7557;SDS011;3820;51.098;13.716;2023-04-25T01:15:34;10.70;;;6.23;;
7557;SDS011;3820;51.098;13.716;2023-04-25T01:18:03;9.93;;;6.80;;
7557;SDS011;3820;51.098;13.716;2023-04-25T01:20:32;7.77;;;6.03;;
7557;SDS011;3820;51.098;13.716;2023-04-25T01:22:59;9.33;;;6.37;;
7557;SDS011;3820;51.098;13.716;2023-04-25T01:25:28;9.00;;;6.37;;
7557;SDS011;3820;51.098;13.716;2023-04-25T01:27:56;12.50;;;6.93;;
7557;SDS011;3820;51.098;13.716;2023-04-25T01:30:23;7.77;;;6.67;;
7557;SDS011;3820;51.098;13.716;2023-04-25T01:32:52;12.10;;;6.97;;
7557;SDS011;3820;51.098;13.716;2023-04-25T01:35:21;8.33;;;6.67;;
7557;SDS011;3820;51.098;13.716;2023-04-25T01:37:50;9.07;;;7.20;;
7557;SDS011;3820;51.098;13.716;2023-04-25T01:40:17;10.80;;;7.37;;
7557;SDS011;3820;51.098;13.716;2023-04-25T01:42:45;11.23;;;6.97;;
7557;SDS011;3820;51.098;13.716;2023-04-25T01:45:12;9.20;;;6.90;;
7557;SDS011;3820;51.098;13.716;2023-04-25T01:47:39;8.60;;;7.37;;
7557;SDS011;3820;51.098;13.716;2023-04-25T01:50:07;10.50;;;7.50;;
7557;SDS011;3820;51.098;13.716;2023-04-25T01:52:34;9.30;;;6.83;;
7557;SDS011;3820;51.098;13.716;2023-04-25T01:55:01;10.63;;;7.27;;
7557;SDS011;3820;51.098;13.716;2023-04-25T01:57:28;11.77;;;7.13;;
7557;SDS011;3820;51.098;13.716;2023-04-25T01:59:55;10.10;;;7.50;;
7557;SDS011;3820;51.098;13.716;2023-04-25T02:02:26;12.33;;;7.60;;
7557;SDS011;3820;51.098;13.716;2023-04-25T02:04:53;12.47;;;7.43;;
7557;SDS011;3820;51.098;13.716;2023-04-25T02:07:20;13.10;;;7.57;;
7557;SDS011;3820;51.098;13.716;2023-04-25T02:09:47;10.27;;;7.73;;
7557;SDS011;3820;51.098;13.716;2023-04-25T02:12:14;10.23;;;7.70;;
7557;SDS011;3820;51.098;13.716;2023-04-25T02:14:44;13.73;;;8.47;;
7557;SDS011;3820;51.098;13.716;2023-04-25T02:17:10;11.60;;;7.93;;
7557;SDS011;3820;51.098;13.716;2023-04-25T02:19:39;10.03;;;8.00;;
7557;SDS011;3820;51.098;13.716;2023-04-25T02:22:06;12.23;;;8.57;;
7557;SDS011;3820;51.098;13.716;2023-04-25T02:24:32;9.23;;;7.90;;
7557;SDS011;3820;51.098;13.716;2023-04-25T02:27:00;13.07;;;8.10;;
7557;SDS011;3820;51.098;13.716;2023-04-25T02:29:27;13.47;;;8.17;;
7557;SDS011;3820;51.098;13.716;2023-04-25T02:31:53;12.87;;;8.23;;
7557;SDS011;3820;51.098;13.716;2023-04-25T02:34:20;13.47;;;8.57;;
7557;SDS011;3820;51.098;13.716;2023-04-25T02:36:48;15.07;;;8.80;;
7557;SDS011;3820;51.098;13.716;2023-04-25T02:39:15;10.63;;;8.30;;
7557;SDS011;3820;51.098;13.716;2023-04-25T02:41:42;11.03;;;8.80;;
7557;SDS011;3820;51.098;13.716;2023-04-25T02:44:09;11.40;;;8.53;;
7557;SDS011;3820;51.098;13.716;2023-04-25T02:46:36;13.20;;;8.50;;
7557;SDS011;3820;51.098;13.716;2023-04-25T02:49:05;11.77;;;8.80;;
7557;SDS011;3820;51.098;13.716;2023-04-25T02:51:32;13.07;;;9.27;;
7557;SDS011;3820;51.098;13.716;2023-04-25T02:54:01;15.37;;;10.10;;
7557;SDS011;3820;51.098;13.716;2023-04-25T02:56:28;13.83;;;9.43;;
7557;SDS011;3820;51.098;13.716;2023-04-25T02:58:54;14.63;;;9.40;;
7557;SDS011;3820;51.098;13.716;2023-04-25T03:01:21;11.63;;;9.20;;
7557;SDS011;3820;51.098;13.716;2023-04-25T03:03:47;15.27;;;9.60;;
7557;SDS011;3820;51.098;13.716;2023-04-25T03:06:14;14.37;;;9.90;;
7557;SDS011;3820;51.098;13.716;2023-04-25T03:08:41;13.27;;;9.20;;
7557;SDS011;3820;51.098;13.716;2023-04-25T03:11:09;14.83;;;9.57;;
7557;SDS011;3820;51.098;13.716;2023-04-25T03:13:35;11.67;;;9.20;;
7557;SDS011;3820;51.098;13.716;2023-04-25T03:16:02;14.87;;;9.73;;
7557;SDS011;3820;51.098;13.716;2023-04-25T03:18:31;16.10;;;10.40;;
7557;SDS011;3820;51.098;13.716;2023-04-25T03:20:57;13.40;;;9.50;;
7557;SDS011;3820;51.098;13.716;2023-04-25T03:23:24;12.87;;;9.40;;
7557;SDS011;3820;51.098;13.716;2023-04-25T03:25:50;12.33;;;8.80;;
7557;SDS011;3820;51.098;13.716;2023-04-25T03:28:17;12.73;;;9.40;;
7557;SDS011;3820;51.098;13.716;2023-04-25T03:30:44;17.93;;;10.80;;
7557;SDS011;3820;51.098;13.716;2023-04-25T03:33:10;14.30;;;10.07;;
7557;SDS011;3820;51.098;13.716;2023-04-25T03:35:37;15.10;;;10.10;;
7557;SDS011;3820;51.098;13.716;2023-04-25T03:38:03;14.67;;;9.90;;
7557;SDS011;3820;51.098;13.716;2023-04-25T03:40:30;15.50;;;10.17;;
7557;SDS011;3820;51.098;13.716;2023-04-25T03:42:56;21.13;;;11.10;;
7557;SDS011;3820;51.098;13.716;2023-04-25T03:45:23;16.60;;;11.60;;
7557;SDS011;3820;51.098;13.716;2023-04-25T03:47:50;17.40;;;11.77;;
7557;SDS011;3820;51.098;13.716;2023-04-25T03:50:16;17.00;;;11.17;;
7557;SDS011;3820;51.098;13.716;2023-04-25T03:52:43;17.00;;;10.80;;
7557;SDS011;3820;51.098;13.716;2023-04-25T03:55:10;16.27;;;11.27;;
7557;SDS011;3820;51.098;13.716;2023-04-25T03:57:37;15.50;;;11.60;;
7557;SDS011;3820;51.098;13.716;2023-04-25T04:00:03;15.40;;;11.27;;
7557;SDS011;3820;51.098;13.716;2023-04-25T04:02:30;16.43;;;10.90;;
7557;SDS011;3820;51.098;13.716;2023-04-25T04:04:57;16.10;;;12.37;;
7557;SDS011;3820;51.098;13.716;2023-04-25T04:07:24;18.90;;;12.10;;
7557;SDS011;3820;51.098;13.716;2023-04-25T04:09:51;19.87;;;12.13;;
7557;SDS011;3820;51.098;13.716;2023-04-25T04:12:17;16.57;;;12.07;;
7557;SDS011;3820;51.098;13.716;2023-04-25T04:14:44;19.53;;;12.10;;
7557;SDS011;3820;51.098;13.716;2023-04-25T04:17:10;19.77;;;12.47;;
7557;SDS011;3820;51.098;13.716;2023-04-25T04:19:37;18.53;;;12.20;;
7557;SDS011;3820;51.098;13.716;2023-04-25T04:22:04;20.83;;;11.90;;
7557;SDS011;3820;51.098;13.716;2023-04-25T04:24:31;16.23;;;11.83;;
7557;SDS011;3820;51.098;13.716;2023-04-25T04:26:57;17.57;;;11.90;;
7557;SDS011;3820;51.098;13.716;2023-04-25T04:29:24;19.80;;;12.03;;
7557;SDS011;3820;51.098;13.716;2023-04-25T04:31:51;20.60;;;13.07;;
7557;SDS011;3820;51.098;13.716;2023-04-25T04:34:19;16.80;;;11.97;;
7557;SDS011;3820;51.098;13.716;2023-04-25T04:36:45;24.20;;;14.73;;
7557;SDS011;3820;51.098;13.716;2023-04-25T04:39:12;20.57;;;14.00;;
7557;SDS011;3820;51.098;13.716;2023-04-25T04:41:39;19.17;;;12.43;;
7557;SDS011;3820;51.098;13.716;2023-04-25T04:44:06;18.43;;;13.40;;
7557;SDS011;3820;51.098;13.716;2023-04-25T04:46:38;25.70;;;15.30;;
7557;SDS011;3820;51.098;13.716;2023-04-25T04:49:09;26.53;;;19.53;;
7557;SDS011;3820;51.098;13.716;2023-04-25T04:51:36;25.13;;;17.30;;
7557;SDS011;3820;51.098;13.716;2023-04-25T04:54:03;17.90;;;13.07;;
7557;SDS011;3820;51.098;13.716;2023-04-25T04:56:32;18.73;;;12.83;;
7557;SDS011;3820;51.098;13.716;2023-04-25T04:59:10;15.57;;;11.97;;
7557;SDS011;3820;51.098;13.716;2023-04-25T05:01:46;15.73;;;11.40;;
7557;SDS011;3820;51.098;13.716;2023-04-25T05:04:13;18.70;;;10.83;;
7557;SDS011;3820;51.098;13.716;2023-04-25T05:06:39;15.97;;;11.37;;
7557;SDS011;3820;51.098;13.716;2023-04-25T05:09:06;15.97;;;11.37;;
7557;SDS011;3820;51.098;13.716;2023-04-25T05:11:33;16.03;;;10.83;;
7557;SDS011;3820;51.098;13.716;2023-04-25T05:13:59;16.40;;;10.30;;
7557;SDS011;3820;51.098;13.716;2023-04-25T05:16:26;14.20;;;9.63;;
7557;SDS011;3820;51.098;13.716;2023-04-25T05:18:52;15.10;;;9.73;;
7557;SDS011;3820;51.098;13.716;2023-04-25T05:21:19;15.37;;;9.30;;
7557;SDS011;3820;51.098;13.716;2023-04-25T05:23:45;13.77;;;9.00;;
7557;SDS011;3820;51.098;13.716;2023-04-25T05:26:12;15.60;;;8.50;;
7557;SDS011;3820;51.098;13.716;2023-04-25T05:28:42;11.60;;;8.40;;
7557;SDS011;3820;51.098;13.716;2023-04-25T05:31:09;12.60;;;8.07;;
7557;SDS011;3820;51.098;13.716;2023-04-25T05:33:36;10.15;;;7.60;;
7557;SDS011;3820;51.098;13.716;2023-04-25T05:36:03;9.50;;;7.25;;
7557;SDS011;3820;51.098;13.716;2023-04-25T05:38:29;9.82;;;7.50;;
7557;SDS011;3820;51.098;13.716;2023-04-25T05:41:00;10.98;;;6.80;;
7557;SDS011;3820;51.098;13.716;2023-04-25T05:43:26;8.50;;;6.57;;
7557;SDS011;3820;51.098;13.716;2023-04-25T05:45:53;9.27;;;6.30;;
7557;SDS011;3820;51.098;13.716;2023-04-25T05:48:19;9.90;;;6.82;;
7557;SDS011;3820;51.098;13.716;2023-04-25T05:50:46;10.30;;;6.85;;
7557;SDS011;3820;51.098;13.716;2023-04-25T05:53:12;9.50;;;6.25;;
7557;SDS011;3820;51.098;13.716;2023-04-25T05:55:39;9.93;;;6.60;;
7557;SDS011;3820;51.098;13.716;2023-04-25T05:58:06;8.48;;;6.72;;
7557;SDS011;3820;51.098;13.716;2023-04-25T06:00:33;8.32;;;6.00;;
7557;SDS011;3820;51.098;13.716;2023-04-25T06:02:59;10.20;;;6.82;;
7557;SDS011;3820;51.098;13.716;2023-04-25T06:05:28;9.40;;;6.07;;
7557;SDS011;3820;51.098;13.716;2023-04-25T06:07:55;10.82;;;6.50;;
7557;SDS011;3820;51.098;13.716;2023-04-25T06:10:22;10.55;;;6.57;;
7557;SDS011;3820;51.098;13.716;2023-04-25T06:12:48;8.65;;;5.97;;
7557;SDS011;3820;51.098;13.716;2023-04-25T06:15:15;10.32;;;5.40;;
7557;SDS011;3820;51.098;13.716;2023-04-25T06:17:54;11.13;;;5.22;;
7557;SDS011;3820;51.098;13.716;2023-04-25T06:20:21;9.02;;;5.68;;
7557;SDS011;3820;51.098;13.716;2023-04-25T06:22:50;10.75;;;5.32;;
7557;SDS011;3820;51.098;13.716;2023-04-25T06:25:18;8.70;;;5.53;;
7557;SDS011;3820;51.098;13.716;2023-04-25T06:27:44;7.55;;;5.15;;
7557;SDS011;3820;51.098;13.716;2023-04-25T06:30:11;9.48;;;4.65;;
7557;SDS011;3820;51.098;13.716;2023-04-25T06:32:38;6.70;;;4.65;;
7557;SDS011;3820;51.098;13.716;2023-04-25T06:35:05;7.18;;;4.35;;
7557;SDS011;3820;51.098;13.716;2023-04-25T06:37:32;7.88;;;4.88;;
7557;SDS011;3820;51.098;13.716;2023-04-25T06:39:58;8.90;;;4.88;;
7557;SDS011;3820;51.098;13.716;2023-04-25T06:42:25;9.57;;;5.30;;
7557;SDS011;3820;51.098;13.716;2023-04-25T06:44:51;6.68;;;4.45;;
7557;SDS011;3820;51.098;13.716;2023-04-25T06:47:18;8.32;;;4.78;;
7557;SDS011;3820;51.098;13.716;2023-04-25T06:49:44;7.93;;;4.20;;
7557;SDS011;3820;51.098;13.716;2023-04-25T06:52:11;7.15;;;4.47;;
7557;SDS011;3820;51.098;13.716;2023-04-25T06:54:38;8.00;;;4.82;;
7557;SDS011;3820;51.098;13.716;2023-04-25T06:57:04;6.70;;;4.30;;
7557;SDS011;3820;51.098;13.716;2023-04-25T06:59:31;8.45;;;4.30;;
7557;SDS011;3820;51.098;13.716;2023-04-25T07:01:58;8.48;;;4.38;;
7557;SDS011;3820;51.098;13.716;2023-04-25T07:04:25;5.03;;;3.25;;
7557;SDS011;3820;51.098;13.716;2023-04-25T07:06:52;6.68;;;3.85;;
7557;SDS011;3820;51.098;13.716;2023-04-25T07:09:19;7.15;;;3.70;;
7557;SDS011;3820;51.098;13.716;2023-04-25T07:11:45;7.00;;;3.55;;
7557;SDS011;3820;51.098;13.716;2023-04-25T07:14:12;5.28;;;3.70;;
7557;SDS011;3820;51.098;13.716;2023-04-25T07:16:39;6.18;;;3.90;;
7557;SDS011;3820;51.098;13.716;2023-04-25T07:19:06;7.03;;;3.83;;
7557;SDS011;3820;51.098;13.716;2023-04-25T07:21:32;6.50;;;4.28;;
7557;SDS011;3820;51.098;13.716;2023-04-25T07:23:59;5.82;;;4.00;;
7557;SDS011;3820;51.098;13.716;2023-04-25T07:26:25;6.82;;;3.63;;
7557;SDS011;3820;51.098;13.716;2023-04-25T07:28:52;7.47;;;3.72;;
7557;SDS011;3820;51.098;13.716;2023-04-25T07:31:18;6.32;;;3.50;;
7557;SDS011;3820;51.098;13.716;2023-04-25T07:33:45;6.15;;;3.22;;
7557;SDS011;3820;51.098;13.716;2023-04-25T07:36:12;6.40;;;3.50;;
7557;SDS011;3820;51.098;13.716;2023-04-25T07:38:39;6.50;;;3.53;;
7557;SDS011;3820;51.098;13.716;2023-04-25T07:41:05;8.65;;;4.50;;
7557;SDS011;3820;51.098;13.716;2023-04-25T07:43:32;6.97;;;3.80;;
7557;SDS011;3820;51.098;13.716;2023-04-25T07:45:58;6.10;;;3.40;;
7557;SDS011;3820;51.098;13.716;2023-04-25T07:48:25;4.63;;;3.70;;
7557;SDS011;3820;51.098;13.716;2023-04-25T07:50:51;4.95;;;3.78;;
7557;SDS011;3820;51.098;13.716;2023-04-25T07:53:18;5.72;;;3.70;;
7557;SDS011;3820;51.098;13.716;2023-04-25T07:55:45;6.53;;;3.90;;
7557;SDS011;3820;51.098;13.716;2023-04-25T07:58:11;9.10;;;4.32;;
7557;SDS011;3820;51.098;13.716;2023-04-25T08:00:38;6.40;;;4.25;;
7557;SDS011;3820;51.098;13.716;2023-04-25T08:03:04;6.72;;;4.45;;
7557;SDS011;3820;51.098;13.716;2023-04-25T08:05:32;6.35;;;4.00;;
7557;SDS011;3820;51.098;13.716;2023-04-25T08:08:00;7.35;;;4.00;;
7557;SDS011;3820;51.098;13.716;2023-04-25T08:10:28;8.52;;;4.75;;
7557;SDS011;3820;51.098;13.716;2023-04-25T08:12:54;10.27;;;4.70;;
7557;SDS011;3820;51.098;13.716;2023-04-25T08:15:21;5.85;;;4.15;;
7557;SDS011;3820;51.098;13.716;2023-04-25T08:17:47;6.95;;;4.35;;
7557;SDS011;3820;51.098;13.716;2023-04-25T08:20:14;7.40;;;4.75;;
7557;SDS011;3820;51.098;13.716;2023-04-25T08:22:40;7.32;;;4.88;;
7557;SDS011;3820;51.098;13.716;2023-04-25T08:25:07;4.97;;;4.10;;
7557;SDS011;3820;51.098;13.716;2023-04-25T08:27:33;7.63;;;4.75;;
7557;SDS011;3820;51.098;13.716;2023-04-25T08:30:01;8.38;;;4.85;;
7557;SDS011;3820;51.098;13.716;2023-04-25T08:32:29;7.85;;;4.70;;
7557;SDS011;3820;51.098;13.716;2023-04-25T08:34:56;8.07;;;4.50;;
7557;SDS011;3820;51.098;13.716;2023-04-25T08:37:23;7.55;;;4.53;;
7557;SDS011;3820;51.098;13.716;2023-04-25T08:39:49;9.85;;;5.50;;
7557;SDS011;3820;51.098;13.716;2023-04-25T08:42:19;7.13;;;4.78;;
7557;SDS011;3820;51.098;13.716;2023-04-25T08:44:48;9.63;;;5.10;;
7557;SDS011;3820;51.098;13.716;2023-04-25T08:47:15;7.88;;;5.40;;
7557;SDS011;3820;51.098;13.716;2023-04-25T08:49:44;6.07;;;4.18;;
7557;SDS011;3820;51.098;13.716;2023-04-25T08:52:12;8.18;;;4.55;;
7557;SDS011;3820;51.098;13.716;2023-04-25T08:54:41;9.73;;;4.72;;
7557;SDS011;3820;51.098;13.716;2023-04-25T08:57:11;5.25;;;4.07;;
7557;SDS011;3820;51.098;13.716;2023-04-25T08:59:39;5.68;;;4.35;;
7557;SDS011;3820;51.098;13.716;2023-04-25T09:02:06;7.07;;;4.60;;
7557;SDS011;3820;51.098;13.716;2023-04-25T09:04:35;6.35;;;4.65;;
7557;SDS011;3820;51.098;13.716;2023-04-25T09:07:02;7.03;;;5.10;;
7557;SDS011;3820;51.098;13.716;2023-04-25T09:09:29;9.50;;;5.22;;
7557;SDS011;3820;51.098;13.716;2023-04-25T09:11:56;8.77;;;5.57;;
7557;SDS011;3820;51.098;13.716;2023-04-25T09:14:22;10.30;;;5.40;;
7557;SDS011;3820;51.098;13.716;2023-04-25T09:19:22;10.63;;;5.28;;
7557;SDS011;3820;51.098;13.716;2023-04-25T09:22:04;7.20;;;4.53;;
7557;SDS011;3820;51.098;13.716;2023-04-25T09:27:08;9.35;;;5.25;;
7557;SDS011;3820;51.098;13.716;2023-04-25T09:29:39;7.97;;;5.15;;
7557;SDS011;3820;51.098;13.716;2023-04-25T09:34:48;9.23;;;7.13;;
7557;SDS011;3820;51.098;13.716;2023-04-25T09:39:56;9.95;;;5.10;;
7557;SDS011;3820;51.098;13.716;2023-04-25T09:42:25;11.52;;;5.82;;
7557;SDS011;3820;51.098;13.716;2023-04-25T09:44:53;8.77;;;5.75;;
7557;SDS011;3820;51.098;13.716;2023-04-25T09:47:22;10.57;;;5.25;;
7557;SDS011;3820;51.098;13.716;2023-04-25T09:49:50;7.97;;;4.90;;
7557;SDS011;3820;51.098;13.716;2023-04-25T09:52:18;7.32;;;5.20;;
7557;SDS011;3820;51.098;13.716;2023-04-25T09:54:48;10.45;;;5.15;;
7557;SDS011;3820;51.098;13.716;2023-04-25T09:57:25;6.97;;;5.22;;
7557;SDS011;3820;51.098;13.716;2023-04-25T09:59:53;8.32;;;4.35;;
7557;SDS011;3820;51.098;13.716;2023-04-25T10:02:22;6.15;;;3.75;;
7557;SDS011;3820;51.098;13.716;2023-04-25T10:04:50;5.80;;;3.83;;
7557;SDS011;3820;51.098;13.716;2023-04-25T10:07:25;6.75;;;3.85;;
7557;SDS011;3820;51.098;13.716;2023-04-25T10:10:02;9.35;;;3.53;;
7557;SDS011;3820;51.098;13.716;2023-04-25T10:12:30;6.53;;;3.80;;
7557;SDS011;3820;51.098;13.716;2023-04-25T10:14:58;7.40;;;4.40;;
7557;SDS011;3820;51.098;13.716;2023-04-25T10:17:26;7.50;;;3.83;;
7557;SDS011;3820;51.098;13.716;2023-04-25T10:19:54;4.97;;;3.83;;
7557;SDS011;3820;51.098;13.716;2023-04-25T10:22:37;7.15;;;3.70;;
7557;SDS011;3820;51.098;13.716;2023-04-25T10:28:59;7.75;;;4.80;;
7557;SDS011;3820;51.098;13.716;2023-04-25T10:31:27;8.77;;;4.43;;
7557;SDS011;3820;51.098;13.716;2023-04-25T10:33:55;7.20;;;5.15;;
7557;SDS011;3820;51.098;13.716;2023-04-25T10:36:25;8.68;;;5.38;;
7557;SDS011;3820;51.098;13.716;2023-04-25T10:38:53;6.82;;;5.13;;
7557;SDS011;3820;51.098;13.716;2023-04-25T10:41:20;5.75;;;4.93;;
7557;SDS011;3820;51.098;13.716;2023-04-25T10:43:49;7.60;;;5.13;;
7557;SDS011;3820;51.098;13.716;2023-04-25T10:46:18;7.38;;;5.30;;
7557;SDS011;3820;51.098;13.716;2023-04-25T10:48:52;9.63;;;5.38;;
7557;SDS011;3820;51.098;13.716;2023-04-25T10:51:29;11.23;;;6.05;;
7557;SDS011;3820;51.098;13.716;2023-04-25T10:54:18;11.13;;;6.22;;
7557;SDS011;3820;51.098;13.716;2023-04-25T10:56:46;8.90;;;6.47;;
7557;SDS011;3820;51.098;13.716;2023-04-25T10:59:19;8.50;;;6.25;;
7557;SDS011;3820;51.098;13.716;2023-04-25T11:01:51;9.63;;;6.53;;
7557;SDS011;3820;51.098;13.716;2023-04-25T11:04:20;9.82;;;7.38;;
7557;SDS011;3820;51.098;13.716;2023-04-25T11:06:55;11.10;;;7.32;;
7557;SDS011;3820;51.098;13.716;2023-04-25T11:09:47;10.88;;;7.40;;
7557;SDS011;3820;51.098;13.716;2023-04-25T11:12:15;12.35;;;7.28;;
7557;SDS011;3820;51.098;13.716;2023-04-25T11:14:42;12.02;;;6.35;;
7557;SDS011;3820;51.098;13.716;2023-04-25T11:17:09;9.93;;;6.40;;
7557;SDS011;3820;51.098;13.716;2023-04-25T11:19:36;11.02;;;6.30;;
7557;SDS011;3820;51.098;13.716;2023-04-25T11:22:03;13.05;;;6.30;;
7557;SDS011;3820;51.098;13.716;2023-04-25T11:24:32;11.35;;;5.90;;
7557;SDS011;3820;51.098;13.716;2023-04-25T11:27:03;10.07;;;5.13;;
7557;SDS011;3820;51.098;13.716;2023-04-25T11:29:31;5.85;;;3.60;;
7557;SDS011;3820;51.098;13.716;2023-04-25T11:31:59;5.30;;;2.60;;
7557;SDS011;3820;51.098;13.716;2023-04-25T11:34:27;8.13;;;2.90;;
7557;SDS011;3820;51.098;13.716;2023-04-25T11:36:57;4.13;;;2.40;;
7557;SDS011;3820;51.098;13.716;2023-04-25T11:39:24;5.15;;;2.42;;
7557;SDS011;3820;51.098;13.716;2023-04-25T11:41:51;4.88;;;2.53;;
7557;SDS011;3820;51.098;13.716;2023-04-25T11:44:18;3.63;;;2.60;;
7557;SDS011;3820;51.098;13.716;2023-04-25T11:46:46;4.22;;;2.50;;
7557;SDS011;3820;51.098;13.716;2023-04-25T11:49:13;4.93;;;2.45;;
7557;SDS011;3820;51.098;13.716;2023-04-25T11:51:45;5.90;;;2.60;;
7557;SDS011;3820;51.098;13.716;2023-04-25T11:54:13;3.95;;;2.58;;
7557;SDS011;3820;51.098;13.716;2023-04-25T11:56:44;6.63;;;3.08;;
7557;SDS011;3820;51.098;13.716;2023-04-25T11:59:11;4.80;;;3.08;;
7557;SDS011;3820;51.098;13.716;2023-04-25T12:01:48;5.72;;;2.80;;
7557;SDS011;3820;51.098;13.716;2023-04-25T12:04:16;6.55;;;3.10;;
7557;SDS011;3820;51.098;13.716;2023-04-25T12:06:45;6.10;;;2.90;;
7557;SDS011;3820;51.098;13.716;2023-04-25T12:09:16;5.07;;;2.72;;
7557;SDS011;3820;51.098;13.716;2023-04-25T12:11:46;7.75;;;3.20;;
7557;SDS011;3820;51.098;13.716;2023-04-25T12:14:29;7.93;;;3.15;;
7557;SDS011;3820;51.098;13.716;2023-04-25T12:17:00;10.95;;;3.63;;
7557;SDS011;3820;51.098;13.716;2023-04-25T12:19:32;10.45;;;4.00;;
7557;SDS011;3820;51.098;13.716;2023-04-25T12:22:03;11.18;;;3.47;;
7557;SDS011;3820;51.098;13.716;2023-04-25T12:24:32;10.82;;;4.05;;
7557;SDS011;3820;51.098;13.716;2023-04-25T12:27:06;12.73;;;4.18;;
7557;SDS011;3820;51.098;13.716;2023-04-25T12:29:36;8.38;;;4.13;;
7557;SDS011;3820;51.098;13.716;2023-04-25T12:32:05;11.25;;;4.25;;
7557;SDS011;3820;51.098;13.716;2023-04-25T12:34:33;14.48;;;5.13;;
7557;SDS011;3820;51.098;13.716;2023-04-25T12:37:02;14.70;;;4.25;;
7557;SDS011;3820;51.098;13.716;2023-04-25T12:39:28;10.48;;;4.30;;
7557;SDS011;3820;51.098;13.716;2023-04-25T12:41:55;10.57;;;4.10;;
7557;SDS011;3820;51.098;13.716;2023-04-25T12:44:22;9.48;;;4.50;;
7557;SDS011;3820;51.098;13.716;2023-04-25T12:46:48;14.27;;;4.30;;
7557;SDS011;3820;51.098;13.716;2023-04-25T12:49:15;10.55;;;4.63;;
7557;SDS011;3820;51.098;13.716;2023-04-25T12:51:44;12.68;;;4.40;;
7557;SDS011;3820;51.098;13.716;2023-04-25T12:54:11;13.18;;;4.55;;
7557;SDS011;3820;51.098;13.716;2023-04-25T12:56:37;14.98;;;4.88;;
7557;SDS011;3820;51.098;13.716;2023-04-25T12:59:03;11.43;;;4.90;;
7557;SDS011;3820;51.098;13.716;2023-04-25T13:01:30;11.35;;;5.22;;
7557;SDS011;3820;51.098;13.716;2023-04-25T13:04:01;12.15;;;4.70;;
7557;SDS011;3820;51.098;13.716;2023-04-25T13:06:28;18.45;;;6.05;;
7557;SDS011;3820;51.098;13.716;2023-04-25T13:08:56;13.63;;;4.95;;
7557;SDS011;3820;51.098;13.716;2023-04-25T13:11:23;10.95;;;5.40;;
7557;SDS011;3820;51.098;13.716;2023-04-25T13:13:49;15.35;;;5.25;;
7557;SDS011;3820;51.098;13.716;2023-04-25T13:16:16;15.65;;;5.85;;
7557;SDS011;3820;51.098;13.716;2023-04-25T13:18:43;13.13;;;5.88;;
7557;SDS011;3820;51.098;13.716;2023-04-25T13:21:10;15.18;;;6.00;;
7557;SDS011;3820;51.098;13.716;2023-04-25T13:23:37;14.63;;;5.55;;
7557;SDS011;3820;51.098;13.716;2023-04-25T13:26:04;15.98;;;5.65;;
7557;SDS011;3820;51.098;13.716;2023-04-25T13:28:31;16.93;;;5.93;;
7557;SDS011;3820;51.098;13.716;2023-04-25T13:30:58;12.07;;;5.70;;
7557;SDS011;3820;51.098;13.716;2023-04-25T13:33:25;13.67;;;5.40;;
7557;SDS011;3820;51.098;13.716;2023-04-25T13:35:52;13.60;;;5.47;;
7557;SDS011;3820;51.098;13.716;2023-04-25T13:38:23;13.17;;;5.00;;
7557;SDS011;3820;51.098;13.716;2023-04-25T13:40:51;17.10;;;5.40;;
7557;SDS011;3820;51.098;13.716;2023-04-25T13:43:22;16.08;;;5.22;;
7557;SDS011;3820;51.098;13.716;2023-04-25T13:45:49;11.40;;;5.00;;
7557;SDS011;3820;51.098;13.716;2023-04-25T13:48:16;15.13;;;5.20;;
7557;SDS011;3820;51.098;13.716;2023-04-25T13:50:43;14.55;;;5.53;;
7557;SDS011;3820;51.098;13.716;2023-04-25T13:53:10;14.48;;;5.40;;
7557;SDS011;3820;51.098;13.716;2023-04-25T13:55:36;15.03;;;5.43;;
7557;SDS011;3820;51.098;13.716;2023-04-25T13:58:03;13.17;;;5.27;;
7557;SDS011;3820;51.098;13.716;2023-04-25T14:00:34;13.53;;;5.20;;
7557;SDS011;3820;51.098;13.716;2023-04-25T14:03:03;16.00;;;5.23;;
7557;SDS011;3820;51.098;13.716;2023-04-25T14:05:31;16.30;;;5.68;;
7557;SDS011;3820;51.098;13.716;2023-04-25T14:07:58;15.65;;;5.65;;
7557;SDS011;3820;51.098;13.716;2023-04-25T14:10:27;14.77;;;5.37;;
7557;SDS011;3820;51.098;13.716;2023-04-25T14:12:53;13.87;;;5.27;;
7557;SDS011;3820;51.098;13.716;2023-04-25T14:15:20;15.80;;;5.57;;
7557;SDS011;3820;51.098;13.716;2023-04-25T14:17:46;13.10;;;5.17;;
7557;SDS011;3820;51.098;13.716;2023-04-25T14:20:14;15.97;;;5.57;;
7557;SDS011;3820;51.098;13.716;2023-04-25T14:22:41;16.65;;;6.07;;
7557;SDS011;3820;51.098;13.716;2023-04-25T14:25:11;13.52;;;5.55;;
7557;SDS011;3820;51.098;13.716;2023-04-25T14:27:38;17.52;;;5.85;;
7557;SDS011;3820;51.098;13.716;2023-04-25T14:30:04;17.07;;;5.17;;
7557;SDS011;3820;51.098;13.716;2023-04-25T14:32:32;13.20;;;5.00;;
7557;SDS011;3820;51.098;13.716;2023-04-25T14:34:59;15.50;;;5.32;;
7557;SDS011;3820;51.098;13.716;2023-04-25T14:37:26;14.13;;;5.47;;
7557;SDS011;3820;51.098;13.716;2023-04-25T14:39:52;15.65;;;5.43;;
7557;SDS011;3820;51.098;13.716;2023-04-25T14:42:18;10.63;;;4.68;;
7557;SDS011;3820;51.098;13.716;2023-04-25T14:44:45;10.82;;;4.93;;
7557;SDS011;3820;51.098;13.716;2023-04-25T14:47:12;17.88;;;5.47;;
7557;SDS011;3820;51.098;13.716;2023-04-25T14:49:39;11.60;;;5.15;;
7557;SDS011;3820;51.098;13.716;2023-04-25T14:52:08;11.25;;;5.60;;
7557;SDS011;3820;51.098;13.716;2023-04-25T14:54:34;10.77;;;4.65;;
7557;SDS011;3820;51.098;13.716;2023-04-25T14:57:01;12.27;;;4.93;;
7557;SDS011;3820;51.098;13.716;2023-04-25T14:59:28;11.20;;;4.50;;
7557;SDS011;3820;51.098;13.716;2023-04-25T15:01:54;13.02;;;4.28;;
7557;SDS011;3820;51.098;13.716;2023-04-25T15:04:25;10.67;;;4.47;;
7557;SDS011;3820;51.098;13.716;2023-04-25T15:06:52;12.40;;;3.33;;
7557;SDS011;3820;51.098;13.716;2023-04-25T15:09:21;9.03;;;3.50;;
7557;SDS011;3820;51.098;13.716;2023-04-25T15:11:52;10.33;;;3.60;;